Time;durP1;ratioP1;P1;durP2;ratioP2;P2;SDS_P1;SDS_P2;PMS_P1;PMS_P2;Temp;Humidity;BMP_temperature;BMP_pressure;BME280_temperature;BME280_humidity;BME280_pressure;Samples;Min_cycle;Max_cycle;Signal;HPM_P1;HPM_P2
2022/10/18 00:01:10;;;;;;;9.63;4.43;;;14.40;99.90;;;;;;7316194;32;20550;-61
2022/10/18 00:05:12;;;;;;;10.10;5.37;;;14.40;99.90;;;;;;7319613;32;20149;-60
2022/10/18 00:09:14;;;;;;;14.23;6.37;;;14.40;99.90;;;;;;7327770;32;20116;-62
2022/10/18 00:13:16;;;;;;;15.27;6.47;;;14.50;99.90;;;;;;7319970;32;20130;-60
2022/10/18 00:17:18;;;;;;;14.90;6.07;;;14.50;99.90;;;;;;7321592;32;20137;-60
2022/10/18 00:21:22;;;;;;;8.95;5.05;;;14.40;99.90;;;;;;7312816;32;20905;-60
2022/10/18 00:25:24;;;;;;;13.43;5.30;;;14.40;99.90;;;;;;7319482;32;20112;-61
2022/10/18 00:29:26;;;;;;;10.68;4.40;;;14.40;99.90;;;;;;7326339;32;20110;-60
2022/10/18 00:33:27;;;;;;;10.48;4.93;;;14.40;99.90;;;;;;7324433;32;20129;-60
2022/10/18 00:37:29;;;;;;;13.10;5.10;;;14.40;99.90;;;;;;7322666;32;20388;-61
2022/10/18 00:41:32;;;;;;;15.23;5.32;;;14.40;99.90;;;;;;7327151;32;20134;-60
2022/10/18 00:45:34;;;;;;;12.10;5.05;;;14.40;99.90;;;;;;7321262;32;20137;-61
2022/10/18 00:49:40;;;;;;;21.92;5.65;;;14.40;99.90;;;;;;7322529;32;20169;-60
2022/10/18 00:53:42;;;;;;;7.40;4.50;;;14.40;99.90;;;;;;7335834;32;20148;-60
2022/10/18 00:57:44;;;;;;;13.50;5.15;;;14.40;99.90;;;;;;7327372;32;20144;-62
2022/10/18 01:01:46;;;;;;;12.05;5.97;;;14.40;99.90;;;;;;7315693;32;20112;-61
2022/10/18 01:05:48;;;;;;;11.80;4.72;;;14.40;99.90;;;;;;7323509;32;20115;-60
2022/10/18 01:10:07;;;;;;;11.38;5.62;;;14.40;99.90;;;;;;7324842;32;20240;-60
2022/10/18 01:14:35;;;;;;;13.98;5.75;;;14.40;99.90;;;;;;7318559;32;21248;-61
2022/10/18 01:18:44;;;;;;;11.23;5.68;;;14.40;99.90;;;;;;7324404;32;20115;-60
2022/10/18 01:22:55;;;;;;;9.93;6.32;;;14.40;99.90;;;;;;7329663;32;20142;-61
2022/10/18 01:27:00;;;;;;;18.70;6.47;;;14.40;99.90;;;;;;7322927;32;20112;-61
2022/10/18 01:31:16;;;;;;;15.98;6.12;;;14.40;99.90;;;;;;7318080;32;20475;-62
2022/10/18 01:35:28;;;;;;;15.63;6.40;;;14.40;99.90;;;;;;7314019;32;20120;-60
2022/10/18 01:39:36;;;;;;;13.00;7.00;;;14.30;99.90;;;;;;7317318;32;21132;-61
2022/10/18 01:43:39;;;;;;;17.77;7.45;;;14.40;99.90;;;;;;7319344;32;20099;-61
2022/10/18 01:47:45;;;;;;;13.88;6.87;;;14.30;99.90;;;;;;7314524;32;20115;-60
2022/10/18 01:51:47;;;;;;;10.60;6.43;;;14.30;99.90;;;;;;7315701;32;20230;-61
2022/10/18 01:56:03;;;;;;;11.98;6.20;;;14.30;99.90;;;;;;7315205;32;20114;-62
2022/10/18 02:00:23;;;;;;;9.50;6.43;;;14.30;99.90;;;;;;7322505;32;20868;-60
2022/10/18 02:04:45;;;;;;;21.45;7.03;;;14.30;99.90;;;;;;7319977;32;20115;-61
2022/10/18 02:09:02;;;;;;;15.60;6.32;;;14.30;99.90;;;;;;7311575;32;20809;-61
2022/10/18 02:13:04;;;;;;;16.75;6.93;;;14.30;99.90;;;;;;7314160;32;20137;-62
2022/10/18 02:17:10;;;;;;;14.15;7.72;;;14.30;99.90;;;;;;7318850;32;20175;-63
2022/10/18 02:21:16;;;;;;;10.80;6.82;;;14.40;99.90;;;;;;7315395;32;20551;-60
2022/10/18 02:25:22;;;;;;;12.65;6.50;;;14.30;99.90;;;;;;7317327;32;20503;-61
2022/10/18 02:29:24;;;;;;;14.50;7.40;;;14.30;99.90;;;;;;7313083;32;20146;-60
2022/10/18 02:33:50;;;;;;;11.73;7.37;;;14.30;99.90;;;;;;7313250;32;20210;-62
2022/10/18 02:37:53;;;;;;;8.02;5.62;;;14.30;99.90;;;;;;7320297;32;20690;-61
2022/10/18 02:41:56;;;;;;;11.50;6.32;;;14.40;99.90;;;;;;7312139;32;20111;-61
2022/10/18 02:45:58;;;;;;;11.05;7.07;;;14.30;99.90;;;;;;7314825;32;20230;-60
2022/10/18 02:50:00;;;;;;;11.18;6.43;;;14.30;99.90;;;;;;7316864;32;20220;-60
2022/10/18 02:54:02;;;;;;;11.90;6.93;;;14.30;99.90;;;;;;7318220;32;20129;-60
2022/10/18 02:58:04;;;;;;;9.77;5.57;;;14.30;99.90;;;;;;7322866;32;20131;-60
2022/10/18 03:02:05;;;;;;;17.25;5.70;;;14.30;99.90;;;;;;7317708;32;20131;-60
2022/10/18 03:06:07;;;;;;;14.45;7.12;;;14.30;99.90;;;;;;7321510;32;20115;-61
2022/10/18 03:10:09;;;;;;;11.07;6.80;;;14.30;99.90;;;;;;7323241;32;20119;-61
2022/10/18 03:14:10;;;;;;;17.48;6.95;;;14.40;99.90;;;;;;7318151;32;20191;-60
2022/10/18 03:18:12;;;;;;;10.38;6.15;;;14.40;99.90;;;;;;7324491;32;20141;-58
2022/10/18 03:22:14;;;;;;;14.48;7.00;;;14.30;99.90;;;;;;7322145;32;20108;-60
2022/10/18 03:26:15;;;;;;;12.37;6.90;;;14.40;99.90;;;;;;7318731;32;20107;-59
2022/10/18 03:30:17;;;;;;;12.32;6.57;;;14.30;99.90;;;;;;7318925;32;20108;-60
2022/10/18 03:34:19;;;;;;;15.88;7.00;;;14.30;99.90;;;;;;7324606;32;20112;-59
2022/10/18 03:38:20;;;;;;;16.58;6.95;;;14.30;99.90;;;;;;7317457;32;20272;-59
2022/10/18 03:42:22;;;;;;;20.08;7.30;;;14.30;99.90;;;;;;7317347;32;20496;-59
2022/10/18 03:46:24;;;;;;;14.75;6.20;;;14.30;99.90;;;;;;7315170;32;20893;-60
2022/10/18 03:50:26;;;;;;;12.60;6.80;;;14.30;99.90;;;;;;7319925;32;20221;-60
2022/10/18 03:54:27;;;;;;;11.73;6.22;;;14.30;99.90;;;;;;7321690;32;20112;-61
2022/10/18 03:58:29;;;;;;;17.00;6.85;;;14.30;99.90;;;;;;7323098;32;20186;-61
2022/10/18 04:02:31;;;;;;;10.40;6.85;;;14.30;99.90;;;;;;7325973;32;20201;-61
2022/10/18 04:06:33;;;;;;;9.35;5.97;;;14.30;99.90;;;;;;7324687;32;20217;-60
2022/10/18 04:10:37;;;;;;;16.75;6.55;;;14.30;99.90;;;;;;7322145;32;20854;-63
2022/10/18 04:14:39;;;;;;;8.82;6.22;;;14.30;99.90;;;;;;7322367;32;20509;-61
2022/10/18 04:18:40;;;;;;;11.27;5.80;;;14.30;99.90;;;;;;7325772;32;20251;-61
2022/10/18 04:22:42;;;;;;;13.38;6.18;;;14.30;99.90;;;;;;7327864;32;20111;-61
2022/10/18 04:26:44;;;;;;;13.27;6.22;;;14.40;99.90;;;;;;7324660;32;20138;-61
2022/10/18 04:30:52;;;;;;;13.75;6.65;;;14.30;99.90;;;;;;7319874;32;20104;-60
2022/10/18 04:34:54;;;;;;;13.65;6.05;;;14.30;99.90;;;;;;7319028;32;20169;-62
2022/10/18 04:38:56;;;;;;;17.15;6.32;;;14.30;99.90;;;;;;7320739;32;20119;-61
2022/10/18 04:42:57;;;;;;;12.73;6.10;;;14.30;99.90;;;;;;7322564;32;20104;-60
2022/10/18 04:46:59;;;;;;;13.88;5.72;;;14.30;99.90;;;;;;7318019;32;20108;-59
2022/10/18 04:51:01;;;;;;;11.90;5.87;;;14.30;99.90;;;;;;7315134;32;20241;-60
2022/10/18 04:55:03;;;;;;;17.23;5.87;;;14.30;99.90;;;;;;7321692;32;20147;-60
2022/10/18 04:59:04;;;;;;;13.77;5.70;;;14.30;99.90;;;;;;7320818;32;20116;-60
2022/10/18 05:03:07;;;;;;;12.50;5.40;;;14.30;99.90;;;;;;7315837;32;20141;-59
2022/10/18 05:07:09;;;;;;;24.02;14.57;;;14.30;99.90;;;;;;7319558;32;20240;-60
2022/10/18 05:11:11;;;;;;;17.45;11.12;;;14.30;99.90;;;;;;7316331;32;20237;-61
2022/10/18 05:15:12;;;;;;;14.77;7.47;;;14.30;99.90;;;;;;7325236;32;20425;-60
2022/10/18 05:19:14;;;;;;;10.93;6.43;;;14.40;99.90;;;;;;7316231;32;20134;-61
2022/10/18 05:23:16;;;;;;;15.57;6.57;;;14.40;99.90;;;;;;7315889;32;20147;-60
2022/10/18 05:27:18;;;;;;;10.90;5.87;;;14.40;99.90;;;;;;7317035;32;20191;-60
2022/10/18 05:31:20;;;;;;;12.07;6.40;;;14.40;99.90;;;;;;7317770;32;20116;-60
2022/10/18 05:35:22;;;;;;;13.52;6.97;;;14.40;99.90;;;;;;7312433;32;20153;-60
2022/10/18 05:39:23;;;;;;;17.23;6.43;;;14.40;99.90;;;;;;7314560;32;20122;-62
2022/10/18 05:43:28;;;;;;;10.48;5.95;;;14.40;99.90;;;;;;7319672;32;20610;-60
2022/10/18 05:47:30;;;;;;;14.50;5.80;;;14.40;99.90;;;;;;7321084;32;20166;-60
2022/10/18 05:51:32;;;;;;;13.23;5.70;;;14.40;99.90;;;;;;7311797;32;20238;-60
2022/10/18 05:55:33;;;;;;;10.75;5.28;;;14.40;99.90;;;;;;7323527;32;20229;-59
2022/10/18 05:59:35;;;;;;;8.77;5.85;;;14.50;99.90;;;;;;7324033;32;20108;-60
2022/10/18 06:03:37;;;;;;;14.27;6.87;;;14.40;99.90;;;;;;7312052;32;20187;-63
2022/10/18 06:07:38;;;;;;;13.62;6.32;;;14.40;99.90;;;;;;7318859;32;20145;-63
2022/10/18 06:11:40;;;;;;;15.18;6.30;;;14.40;99.90;;;;;;7318448;32;20793;-64
2022/10/18 06:15:42;;;;;;;12.32;6.57;;;14.40;99.90;;;;;;7317856;32;20570;-63
2022/10/18 06:19:43;;;;;;;11.00;6.85;;;14.40;99.90;;;;;;7322117;32;20175;-65
2022/10/18 06:23:49;;;;;;;14.10;6.47;;;14.40;99.90;;;;;;7327672;32;20115;-63
2022/10/18 06:27:51;;;;;;;14.98;8.32;;;14.40;99.90;;;;;;7313385;32;20240;-63
2022/10/18 06:31:53;;;;;;;15.55;9.43;;;14.40;99.90;;;;;;7313456;32;20184;-66
2022/10/18 06:36:00;;;;;;;25.05;11.35;;;14.40;99.90;;;;;;7317002;32;20503;-63
2022/10/18 06:40:01;;;;;;;15.18;8.55;;;14.40;99.90;;;;;;7321737;32;20115;-63
2022/10/18 06:44:12;;;;;;;21.15;7.97;;;14.40;99.90;;;;;;7325579;32;20127;-64
2022/10/18 06:48:14;;;;;;;16.17;7.82;;;14.40;99.90;;;;;;7320581;32;20131;-64
2022/10/18 06:52:17;;;;;;;16.48;9.00;;;14.40;99.90;;;;;;7317117;32;20120;-63
2022/10/18 06:56:18;;;;;;;19.67;9.20;;;14.50;99.90;;;;;;7318987;32;20103;-63
2022/10/18 07:00:20;;;;;;;19.55;10.30;;;14.50;99.90;;;;;;7317581;32;20874;-63
2022/10/18 07:04:28;;;;;;;21.90;9.30;;;14.50;99.90;;;;;;7319373;32;20226;-64
2022/10/18 07:08:30;;;;;;;32.13;14.60;;;14.50;99.90;;;;;;7313146;32;20142;-65
2022/10/18 07:12:32;;;;;;;26.05;12.60;;;14.50;99.90;;;;;;7320149;32;20661;-63
2022/10/18 07:16:34;;;;;;;27.17;13.85;;;14.60;99.90;;;;;;7321072;32;20301;-65
2022/10/18 07:20:35;;;;;;;25.85;13.57;;;14.60;99.90;;;;;;7315944;32;20170;-63
2022/10/18 07:24:37;;;;;;;35.05;14.68;;;14.70;99.90;;;;;;7320885;32;20130;-63
2022/10/18 07:28:39;;;;;;;34.55;17.52;;;14.70;99.90;;;;;;7319970;32;20134;-63
2022/10/18 07:32:41;;;;;;;34.17;18.55;;;14.80;99.90;;;;;;7320260;32;20112;-63
2022/10/18 07:36:42;;;;;;;40.28;21.83;;;14.80;99.90;;;;;;7324215;32;20535;-63
2022/10/18 07:40:44;;;;;;;50.42;24.02;;;14.80;99.90;;;;;;7317775;32;20483;-63
2022/10/18 07:44:46;;;;;;;49.45;24.75;;;14.90;99.90;;;;;;7314449;32;20107;-64
2022/10/18 07:48:48;;;;;;;66.68;32.08;;;15.00;99.90;;;;;;7321673;32;20221;-63
2022/10/18 07:52:50;;;;;;;60.85;28.87;;;15.00;99.90;;;;;;7321847;32;20190;-63
2022/10/18 07:56:51;;;;;;;56.45;27.62;;;15.20;99.90;;;;;;7324107;32;20195;-63
2022/10/18 08:00:53;;;;;;;60.75;28.52;;;15.10;99.90;;;;;;7316573;32;20613;-65
2022/10/18 08:04:55;;;;;;;57.92;30.52;;;15.10;99.90;;;;;;7316354;32;20123;-60
2022/10/18 08:08:57;;;;;;;51.92;28.52;;;15.20;99.90;;;;;;7319799;32;20142;-58
2022/10/18 08:12:58;;;;;;;57.90;29.48;;;15.20;99.90;;;;;;7325557;32;20134;-62
2022/10/18 08:17:00;;;;;;;53.35;29.05;;;15.20;99.90;;;;;;7329243;32;20137;-63
2022/10/18 08:21:04;;;;;;;63.72;30.85;;;15.30;99.90;;;;;;7320961;32;20133;-62
2022/10/18 08:25:06;;;;;;;58.03;31.90;;;15.30;99.90;;;;;;7322931;32;20127;-62
2022/10/18 08:29:09;;;;;;;55.17;30.80;;;15.40;99.90;;;;;;7324245;32;20821;-62
2022/10/18 08:33:24;;;;;;;61.55;30.45;;;15.40;99.90;;;;;;7319433;32;20211;-62
2022/10/18 08:37:26;;;;;;;54.35;30.60;;;15.40;99.90;;;;;;7322751;32;20136;-62
2022/10/18 08:41:38;;;;;;;52.30;29.37;;;15.50;99.90;;;;;;7314766;32;20186;-62
2022/10/18 08:45:40;;;;;;;65.75;33.75;;;15.50;99.90;;;;;;7325919;32;20115;-62
2022/10/18 08:49:56;;;;;;;64.45;34.45;;;15.60;99.90;;;;;;7323312;32;20123;-65
2022/10/18 08:54:09;;;;;;;67.32;36.78;;;15.60;99.90;;;;;;7318389;32;20103;-62
2022/10/18 08:58:28;;;;;;;75.47;38.08;;;15.60;99.90;;;;;;7321134;32;20115;-62
2022/10/18 09:03:11;;;;;;;79.68;40.00;;;15.60;99.90;;;;;;7323360;32;20517;-62
2022/10/18 09:07:38;;;;;;;77.43;39.03;;;15.60;99.90;;;;;;7298897;32;20131;-62
2022/10/18 09:11:46;;;;;;;74.15;39.70;;;15.70;99.90;;;;;;7324051;32;20126;-62
2022/10/18 09:15:55;;;;;;;73.35;38.33;;;15.60;99.90;;;;;;7315596;32;20145;-62
2022/10/18 09:20:12;;;;;;;80.30;43.10;;;15.70;99.90;;;;;;7327704;32;20142;-62
2022/10/18 09:24:26;;;;;;;90.53;43.40;;;15.60;99.90;;;;;;7318170;32;20111;-62
2022/10/18 09:28:27;;;;;;;79.18;42.83;;;15.70;99.90;;;;;;7321615;32;20126;-62
2022/10/18 09:32:58;;;;;;;79.07;41.80;;;15.80;99.90;;;;;;7322018;32;20131;-62
2022/10/18 09:37:00;;;;;;;81.75;46.03;;;16.10;99.90;;;;;;7319770;32;20171;-62
2022/10/18 09:41:25;;;;;;;72.05;41.37;;;16.00;99.90;;;;;;7318387;32;20278;-62
2022/10/18 09:45:36;;;;;;;68.80;41.37;;;16.10;99.90;;;;;;7302443;32;20112;-62
2022/10/18 09:49:46;;;;;;;70.57;40.80;;;16.20;99.90;;;;;;7311673;32;20177;-62
2022/10/18 09:54:20;;;;;;;69.50;40.95;;;16.40;99.90;;;;;;7316643;32;20187;-63
2022/10/18 09:58:26;;;;;;;59.38;37.92;;;16.30;99.90;;;;;;7316232;32;20274;-63
2022/10/18 10:02:28;;;;;;;81.70;46.80;;;16.30;99.90;;;;;;7322663;32;20116;-63
2022/10/18 10:06:33;;;;;;;85.30;45.60;;;16.30;99.90;;;;;;7321008;32;20520;-63
2022/10/18 10:10:39;;;;;;;104.80;54.88;;;16.40;99.90;;;;;;7321413;32;20138;-63
2022/10/18 10:14:44;;;;;;;129.50;61.83;;;16.60;99.90;;;;;;7325851;32;20112;-63
2022/10/18 10:18:52;;;;;;;134.30;64.70;;;16.90;99.90;;;;;;7316276;32;20170;-63
2022/10/18 10:23:15;;;;;;;139.90;67.78;;;17.00;99.90;;;;;;7323490;32;20222;-63
2022/10/18 10:27:23;;;;;;;134.90;67.93;;;16.90;99.90;;;;;;7317658;32;20558;-63
2022/10/18 10:31:30;;;;;;;134.90;70.28;;;16.80;99.90;;;;;;7319543;32;20532;-63
2022/10/18 10:35:37;;;;;;;;;;;17.10;99.90;;;;;;7319953;32;20212;-63
2022/10/18 10:40:03;;;;;;;115.90;62.00;;;17.20;99.90;;;;;;7323617;32;19999;-63
2022/10/18 10:44:21;;;;;;;113.62;58.90;;;17.20;99.90;;;;;;7322237;32;20548;-63
2022/10/18 10:48:25;;;;;;;114.25;60.45;;;17.00;99.90;;;;;;7318846;32;20203;-65
2022/10/18 10:52:33;;;;;;;112.03;62.83;;;16.90;99.90;;;;;;7321887;32;20194;-63
2022/10/18 10:56:48;;;;;;;112.18;61.90;;;16.70;99.90;;;;;;7317346;32;20223;-63
2022/10/18 11:00:50;;;;;;;120.80;61.70;;;16.50;99.90;;;;;;7316286;32;20130;-63
2022/10/18 11:04:54;;;;;;;126.45;65.25;;;16.40;99.90;;;;;;7325792;32;20211;-63
2022/10/18 11:08:58;;;;;;;121.40;64.53;;;16.40;99.90;;;;;;7322105;32;20141;-63
2022/10/18 11:13:17;;;;;;;117.80;60.63;;;16.50;99.90;;;;;;7320403;32;20120;-63
2022/10/18 11:17:22;;;;;;;110.65;56.53;;;16.70;99.90;;;;;;7320427;32;20568;-63
2022/10/18 11:21:30;;;;;;;89.75;50.03;;;17.10;99.90;;;;;;7314406;32;20103;-64
2022/10/18 11:25:49;;;;;;;81.22;46.88;;;17.10;99.90;;;;;;7320920;32;20206;-63
2022/10/18 11:30:20;;;;;;;75.93;44.00;;;17.30;99.90;;;;;;7317957;32;20149;-63
2022/10/18 11:34:24;;;;;;;76.28;42.92;;;17.20;99.90;;;;;;7298910;32;20445;-63
2022/10/18 11:39:04;;;;;;;69.22;40.72;;;17.20;99.90;;;;;;7321423;32;20204;-59
2022/10/18 11:43:14;;;;;;;66.37;40.88;;;17.40;99.90;;;;;;7310222;32;20457;-59
2022/10/18 11:47:30;;;;;;;58.05;39.85;;;17.50;99.90;;;;;;7323583;32;20136;-59
2022/10/18 11:51:54;;;;;;;54.63;38.40;;;17.70;99.90;;;;;;7318007;32;20293;-59
2022/10/18 11:56:15;;;;;;;53.63;38.38;;;17.90;99.90;;;;;;7323063;32;20258;-64
2022/10/18 12:00:43;;;;;;;56.80;37.10;;;17.90;99.90;;;;;;7318041;32;20493;-64
2022/10/18 12:04:56;;;;;;;47.83;30.65;;;17.70;99.90;;;;;;7312925;32;20119;-65
2022/10/18 12:09:30;;;;;;;45.22;27.15;;;17.70;99.90;;;;;;7323170;32;20115;-63
2022/10/18 12:13:35;;;;;;;43.80;27.02;;;17.70;99.90;;;;;;7326607;32;20207;-64
2022/10/18 12:17:40;;;;;;;55.92;32.22;;;17.70;99.90;;;;;;7323699;32;20226;-63
2022/10/18 12:21:50;;;;;;;64.30;35.08;;;17.40;99.90;;;;;;7317177;32;20103;-64
2022/10/18 12:25:58;;;;;;;73.57;38.20;;;17.40;99.90;;;;;;7329882;32;20244;-63
2022/10/18 12:30:10;;;;;;;58.60;31.25;;;17.30;99.90;;;;;;7323239;32;20484;-63
2022/10/18 12:34:21;;;;;;;57.38;29.70;;;17.30;99.90;;;;;;7321436;32;20169;-62
2022/10/18 12:38:28;;;;;;;48.40;26.40;;;17.20;99.90;;;;;;7318799;32;20284;-63
2022/10/18 12:42:32;;;;;;;39.95;21.95;;;17.40;99.90;;;;;;7316707;32;20115;-63
2022/10/18 12:46:43;;;;;;;35.97;20.42;;;17.30;99.90;;;;;;7323634;32;20222;-64
2022/10/18 12:50:57;;;;;;;32.08;17.42;;;17.50;99.90;;;;;;7318206;32;20115;-63
2022/10/18 12:55:13;;;;;;;23.33;14.70;;;17.60;99.90;;;;;;7315286;32;20104;-60
2022/10/18 12:59:18;;;;;;;23.25;12.30;;;17.90;99.90;;;;;;7316838;32;20119;-62
2022/10/18 13:03:36;;;;;;;21.65;12.15;;;18.10;99.90;;;;;;7325370;32;20126;-63
2022/10/18 13:07:41;;;;;;;24.98;12.10;;;18.40;99.90;;;;;;7320428;32;20146;-63
2022/10/18 13:11:43;;;;;;;21.30;11.65;;;18.40;99.90;;;;;;7318951;32;20128;-64
2022/10/18 13:15:59;;;;;;;29.55;11.30;;;18.30;99.90;;;;;;7319427;32;20504;-63
2022/10/18 13:20:17;;;;;;;19.25;10.23;;;18.00;99.90;;;;;;7319430;32;20181;-63
2022/10/18 13:24:27;;;;;;;21.90;8.80;;;17.80;99.90;;;;;;7316985;32;20115;-63
2022/10/18 13:29:16;;;;;;;17.65;9.07;;;17.90;99.90;;;;;;7320235;32;20107;-63
2022/10/18 13:33:40;;;;;;;16.30;9.00;;;18.00;99.90;;;;;;7325170;32;20683;-64
2022/10/18 13:37:55;;;;;;;20.05;7.57;;;18.20;99.90;;;;;;7319891;32;20110;-63
2022/10/18 13:41:59;;;;;;;13.55;5.30;;;18.40;99.90;;;;;;7324160;32;20160;-63
2022/10/18 13:46:04;;;;;;;13.90;5.97;;;18.50;99.90;;;;;;7314756;32;20555;-63
2022/10/18 13:50:28;;;;;;;13.07;5.53;;;18.20;99.90;;;;;;7323137;32;20527;-63
2022/10/18 13:54:42;;;;;;;14.07;5.18;;;18.40;99.90;;;;;;7324511;32;20104;-64
2022/10/18 13:59:11;;;;;;;13.88;5.43;;;18.40;99.90;;;;;;7317714;32;20121;-63
2022/10/18 14:03:22;;;;;;;12.07;4.37;;;18.10;99.90;;;;;;7317356;32;20114;-63
2022/10/18 14:07:45;;;;;;;14.05;5.00;;;17.90;99.90;;;;;;7316848;32;20202;-63
2022/10/18 14:11:52;;;;;;;15.30;4.68;;;17.80;99.90;;;;;;7328358;32;20108;-63
2022/10/18 14:16:04;;;;;;;10.50;3.55;;;18.00;99.90;;;;;;7320964;32;20203;-65
2022/10/18 14:20:14;;;;;;;11.80;3.37;;;18.00;99.90;;;;;;7319508;32;20112;-63
2022/10/18 14:24:21;;;;;;;14.60;4.18;;;18.00;99.90;;;;;;7318932;32;20187;-63
2022/10/18 14:28:23;;;;;;;12.73;3.85;;;18.00;99.90;;;;;;7315107;32;20104;-64
2022/10/18 14:32:50;;;;;;;18.05;3.58;;;17.80;99.90;;;;;;7322913;32;20267;-63
2022/10/18 14:36:51;;;;;;;;;;;17.80;99.90;;;;;;7313656;32;20111;-63
2022/10/18 14:41:14;;;;;;;12.57;2.62;;;17.70;99.90;;;;;;7315024;32;20007;-63
2022/10/18 14:45:19;;;;;;;13.07;3.08;;;17.50;99.90;;;;;;7315979;32;20145;-64
2022/10/18 14:49:21;;;;;;;10.05;3.20;;;17.20;99.90;;;;;;7320485;32;20107;-63
2022/10/18 14:53:24;;;;;;;11.15;2.72;;;17.30;99.90;;;;;;7313195;32;20142;-63
2022/10/18 14:57:35;;;;;;;13.75;2.85;;;17.20;99.90;;;;;;7321634;32;20107;-63
2022/10/18 15:01:38;;;;;;;10.45;4.35;;;17.00;99.90;;;;;;7322444;32;20112;-63
2022/10/18 15:05:52;;;;;;;9.07;2.47;;;17.10;99.90;;;;;;7325867;32;20433;-62
2022/10/18 15:09:56;;;;;;;9.88;2.78;;;17.00;99.90;;;;;;7327296;32;20206;-62
2022/10/18 15:14:02;;;;;;;12.35;2.80;;;16.90;99.90;;;;;;7327938;32;20108;-62
2022/10/18 15:18:05;;;;;;;11.82;2.08;;;16.80;99.90;;;;;;7325939;32;20144;-64
2022/10/18 15:22:08;;;;;;;7.35;2.67;;;16.60;99.90;;;;;;7321962;32;20173;-62
2022/10/18 15:26:30;;;;;;;12.27;2.62;;;16.50;99.90;;;;;;7319066;32;20138;-63
2022/10/18 15:30:41;;;;;;;14.43;2.80;;;16.30;99.90;;;;;;7326877;32;20135;-62
2022/10/18 15:34:44;;;;;;;11.40;6.12;;;16.30;99.90;;;;;;7328259;32;20161;-62
2022/10/18 15:38:46;;;;;;;11.07;2.92;;;16.10;99.90;;;;;;7320621;32;20169;-63
2022/10/18 15:42:56;;;;;;;12.43;2.70;;;15.90;99.90;;;;;;7325990;32;20444;-63
2022/10/18 15:47:19;;;;;;;;;;;15.70;99.90;;;;;;7320644;32;20127;-62
2022/10/18 15:51:47;;;;;;;8.60;2.40;;;15.60;99.90;;;;;;7322648;32;20039;-61
2022/10/18 15:55:51;;;;;;;;;;;15.40;99.90;;;;;;7317958;32;20109;-63
2022/10/18 15:59:59;;;;;;;10.55;3.00;;;15.20;99.90;;;;;;7327434;32;20006;-63
2022/10/18 16:04:12;;;;;;;11.60;2.60;;;14.90;99.90;;;;;;7327311;32;20142;-62
2022/10/18 16:08:23;;;;;;;10.95;2.53;;;14.60;99.90;;;;;;7321553;32;20605;-63
2022/10/18 16:12:25;;;;;;;15.35;2.37;;;14.40;99.90;;;;;;7318585;32;20225;-62
2022/10/18 16:16:28;;;;;;;28.67;11.30;;;14.10;99.90;;;;;;7322314;32;20601;-62
2022/10/18 16:20:29;;;;;;;21.25;4.93;;;13.90;99.90;;;;;;7321739;32;20135;-63
2022/10/18 16:24:31;;;;;;;20.58;3.22;;;13.80;99.90;;;;;;7325850;32;20110;-62
2022/10/18 16:28:33;;;;;;;20.95;3.30;;;13.60;99.90;;;;;;7323954;32;20218;-62
2022/10/18 16:32:34;;;;;;;18.50;2.65;;;13.40;99.90;;;;;;7324821;32;20236;-62
2022/10/18 16:36:36;;;;;;;18.30;3.35;;;13.20;99.90;;;;;;7321015;32;20775;-62
2022/10/18 16:40:38;;;;;;;18.42;3.30;;;13.00;99.90;;;;;;7325147;32;20764;-62
2022/10/18 16:44:42;;;;;;;14.73;2.55;;;12.90;99.90;;;;;;7321289;32;20253;-60
2022/10/18 16:48:45;;;;;;;26.90;2.97;;;12.70;99.90;;;;;;7322022;32;20108;-60
2022/10/18 16:52:46;;;;;;;17.25;2.87;;;12.60;99.90;;;;;;7318169;32;20126;-59
2022/10/18 16:56:48;;;;;;;20.92;3.03;;;12.50;99.90;;;;;;7322983;32;20137;-59
2022/10/18 17:00:51;;;;;;;22.35;4.60;;;12.30;99.90;;;;;;7318472;32;20108;-60
2022/10/18 17:04:52;;;;;;;21.58;3.67;;;12.10;99.90;;;;;;7319461;32;20115;-59
2022/10/18 17:08:55;;;;;;;15.32;3.00;;;12.00;99.90;;;;;;7320347;32;20624;-60
2022/10/18 17:12:57;;;;;;;19.58;2.85;;;11.90;99.90;;;;;;7322204;32;20130;-59
2022/10/18 17:16:59;;;;;;;17.55;3.28;;;11.80;99.90;;;;;;7319904;32;20137;-60
2022/10/18 17:21:01;;;;;;;21.33;2.97;;;11.70;99.90;;;;;;7321804;32;20570;-61
2022/10/18 17:25:04;;;;;;;19.50;3.42;;;11.50;99.90;;;;;;7321174;32;20107;-64
2022/10/18 17:29:07;;;;;;;30.23;3.65;;;11.40;99.90;;;;;;7321302;32;20154;-62
2022/10/18 17:33:09;;;;;;;20.90;3.62;;;11.30;99.90;;;;;;7322896;32;20227;-60
2022/10/18 17:37:12;;;;;;;12.37;2.80;;;11.20;99.90;;;;;;7315221;32;20116;-60
2022/10/18 17:41:14;;;;;;;22.08;3.03;;;11.10;99.90;;;;;;7315245;32;20211;-62
2022/10/18 17:45:16;;;;;;;10.95;2.53;;;11.10;99.90;;;;;;7317600;32;20169;-59
2022/10/18 17:49:17;;;;;;;10.20;2.30;;;11.00;99.90;;;;;;7316745;32;20222;-59
2022/10/18 17:53:23;;;;;;;20.98;5.20;;;10.90;99.90;;;;;;7322056;32;20104;-59
2022/10/18 17:57:25;;;;;;;21.48;3.58;;;10.80;99.90;;;;;;7320544;32;20242;-60
2022/10/18 18:01:27;;;;;;;23.58;3.67;;;10.70;99.90;;;;;;7310300;32;20111;-60
2022/10/18 18:05:31;;;;;;;25.88;4.55;;;10.60;99.90;;;;;;7315686;32;20138;-62
2022/10/18 18:09:33;;;;;;;22.52;4.25;;;10.60;99.90;;;;;;7317158;32;20572;-61
2022/10/18 18:13:34;;;;;;;21.17;4.30;;;10.50;99.90;;;;;;7314243;32;20190;-61
2022/10/18 18:17:36;;;;;;;23.10;4.15;;;10.40;99.90;;;;;;7320497;32;20176;-59
2022/10/18 18:21:58;;;;;;;22.75;4.22;;;10.30;99.90;;;;;;7314937;32;20129;-61
2022/10/18 18:25:59;;;;;;;16.60;4.37;;;10.30;99.90;;;;;;7314403;32;20138;-61
2022/10/18 18:30:01;;;;;;;17.55;3.85;;;10.30;99.90;;;;;;7309907;32;20563;-61
2022/10/18 18:34:03;;;;;;;21.48;4.28;;;10.20;99.90;;;;;;7315459;32;20806;-61
2022/10/18 18:38:04;;;;;;;19.67;3.58;;;10.10;99.90;;;;;;7314356;32;20166;-61
2022/10/18 18:42:06;;;;;;;24.98;4.47;;;10.00;99.90;;;;;;7310439;32;20148;-61
2022/10/18 18:46:09;;;;;;;19.37;3.70;;;10.10;99.90;;;;;;7315360;32;20213;-61
2022/10/18 18:50:10;;;;;;;18.33;3.67;;;9.90;99.90;;;;;;7315064;32;20112;-61
2022/10/18 18:54:13;;;;;;;16.52;3.72;;;9.80;99.90;;;;;;7313042;32;20099;-60
2022/10/18 18:58:15;;;;;;;20.20;3.67;;;9.70;99.90;;;;;;7320068;32;20263;-61
2022/10/18 19:02:17;;;;;;;11.85;3.42;;;9.60;99.90;;;;;;7305701;32;20116;-61
2022/10/18 19:06:22;;;;;;;15.98;3.70;;;9.60;99.90;;;;;;7315145;32;20217;-59
2022/10/18 19:10:24;;;;;;;12.27;2.60;;;9.60;99.90;;;;;;7312802;32;20107;-61
2022/10/18 19:14:27;;;;;;;18.83;4.47;;;9.50;99.90;;;;;;7315595;32;20645;-62
2022/10/18 19:18:29;;;;;;;24.00;10.10;;;9.50;99.90;;;;;;7314736;32;20131;-62
2022/10/18 19:22:31;;;;;;;20.77;3.20;;;9.40;99.90;;;;;;7321206;32;20120;-61
2022/10/18 19:26:44;;;;;;;13.57;3.37;;;9.30;99.90;;;;;;7318824;32;20111;-61
2022/10/18 19:30:48;;;;;;;11.60;2.62;;;9.30;99.90;;;;;;7320828;32;20310;-61
2022/10/18 19:34:51;;;;;;;22.58;4.18;;;9.30;99.90;;;;;;7318777;32;20129;-61
2022/10/18 19:38:53;;;;;;;20.33;5.80;;;9.20;99.90;;;;;;7319446;32;20734;-61
2022/10/18 19:42:55;;;;;;;11.55;5.05;;;9.10;99.90;;;;;;7315121;32;20570;-60
2022/10/18 19:46:57;;;;;;;19.45;4.10;;;9.00;99.90;;;;;;7314405;32;20166;-61
2022/10/18 19:51:04;;;;;;;18.08;3.25;;;9.00;99.90;;;;;;7316926;32;20695;-61
2022/10/18 19:55:09;;;;;;;12.27;3.45;;;8.90;99.90;;;;;;7328361;32;20107;-61
2022/10/18 19:59:14;;;;;;;18.35;3.62;;;8.90;99.90;;;;;;7327569;32;20737;-61
2022/10/18 20:03:16;;;;;;;15.48;2.80;;;8.80;99.90;;;;;;7319732;32;20666;-61
2022/10/18 20:07:18;;;;;;;14.10;3.10;;;8.80;99.90;;;;;;7318057;32;20194;-61
2022/10/18 20:11:22;;;;;;;17.62;3.28;;;8.70;99.90;;;;;;7318731;32;20203;-61
2022/10/18 20:15:24;;;;;;;16.92;3.15;;;8.60;99.90;;;;;;7321168;32;20295;-60
2022/10/18 20:19:25;;;;;;;8.82;2.30;;;8.60;99.90;;;;;;7322046;32;20112;-60
2022/10/18 20:23:28;;;;;;;25.25;4.20;;;8.70;99.90;;;;;;7320591;32;20104;-61
2022/10/18 20:27:30;;;;;;;15.15;2.78;;;8.60;99.90;;;;;;7315939;32;20169;-62
2022/10/18 20:31:37;;;;;;;22.58;3.45;;;8.50;99.90;;;;;;7318925;32;20169;-62
2022/10/18 20:35:38;;;;;;;15.38;3.12;;;8.40;99.90;;;;;;7321472;32;20429;-61
2022/10/18 20:39:40;;;;;;;9.73;2.83;;;8.40;99.90;;;;;;7326081;32;20112;-61
2022/10/18 20:43:42;;;;;;;19.00;3.05;;;8.40;99.90;;;;;;7323020;32;20111;-61
2022/10/18 20:47:44;;;;;;;9.07;2.90;;;8.40;99.90;;;;;;7324788;32;20205;-60
2022/10/18 20:51:46;;;;;;;12.65;2.83;;;8.30;99.90;;;;;;7325262;32;20248;-60
2022/10/18 20:55:48;;;;;;;11.98;2.78;;;8.20;99.90;;;;;;7318174;32;20112;-61
2022/10/18 20:59:50;;;;;;;12.20;2.90;;;8.20;99.90;;;;;;7321079;32;20198;-60
2022/10/18 21:03:54;;;;;;;15.75;2.87;;;8.10;99.90;;;;;;7320478;32;20160;-60